Time;durP1;ratioP1;P1;durP2;ratioP2;P2;SDS_P1;SDS_P2;PMS_P1;PMS_P2;Temp;Humidity;BMP_temperature;BMP_pressure;BME280_temperature;BME280_humidity;BME280_pressure;Samples;Min_cycle;Max_cycle;Signal;HPM_P1;HPM_P2
2022/07/28 00:01:28;;;;;;;;;;;14.10;99.90;;;;;;5067906;28;20290;-69
2022/07/28 00:03:53;;;;;;;;;;;14.00;99.90;;;;;;5065995;28;19951;-70
2022/07/28 00:06:19;;;;;;;;;;;14.00;99.90;;;;;;5067878;28;19913;-69
2022/07/28 00:08:44;;;;;;;;;;;14.00;99.90;;;;;;5067360;28;19919;-71
2022/07/28 00:11:10;;;;;;;;;;;14.00;99.90;;;;;;5066590;28;20011;-69
2022/07/28 00:13:35;;;;;;;;;;;14.00;99.90;;;;;;5067469;28;19920;-69
2022/07/28 00:16:01;;;;;;;;;;;13.90;99.90;;;;;;5064977;28;19927;-70
2022/07/28 00:18:26;;;;;;;;;;;13.90;99.90;;;;;;5067685;28;20434;-69
2022/07/28 00:20:52;;;;;;;;;;;13.80;99.90;;;;;;5065724;28;19919;-70
2022/07/28 00:23:17;;;;;;;;;;;13.80;99.90;;;;;;5067278;28;19912;-72
2022/07/28 00:25:42;;;;;;;;;;;13.80;99.90;;;;;;5065569;28;20306;-69
2022/07/28 00:28:08;;;;;;;;;;;13.70;99.90;;;;;;5066479;28;20442;-70
2022/07/28 00:30:33;;;;;;;;;;;13.60;99.90;;;;;;5065772;28;19916;-70
2022/07/28 00:32:59;;;;;;;;;;;13.60;99.90;;;;;;5066957;28;20297;-69
2022/07/28 00:35:24;;;;;;;;;;;13.50;99.90;;;;;;5065461;28;20375;-69
2022/07/28 00:37:49;;;;;;;;;;;13.50;99.90;;;;;;5067508;28;19936;-69
2022/07/28 00:40:15;;;;;;;;;;;13.50;99.90;;;;;;5063996;28;20009;-69
2022/07/28 00:42:40;;;;;;;;;;;13.50;99.90;;;;;;5067782;28;20273;-86
2022/07/28 00:45:07;;;;;;;;;;;13.50;99.90;;;;;;5067914;28;19925;-87
2022/07/28 00:47:32;;;;;;;;;;;13.40;99.90;;;;;;5074277;28;19982;-86
2022/07/28 00:49:58;;;;;;;;;;;13.40;99.90;;;;;;5069663;28;20398;-85
2022/07/28 00:52:23;;;;;;;;;;;13.30;99.90;;;;;;5070053;28;19921;-85
2022/07/28 00:54:49;;;;;;;;;;;13.30;99.90;;;;;;5067951;28;20302;-85
2022/07/28 00:57:15;;;;;;;;;;;13.30;99.90;;;;;;5069280;28;19924;-84
2022/07/28 00:59:40;;;;;;;;;;;13.20;99.90;;;;;;5068214;28;19919;-85
2022/07/28 01:02:06;;;;;;;;;;;13.20;99.90;;;;;;5067630;28;19909;-85
2022/07/28 01:04:31;;;;;;;;;;;13.10;99.90;;;;;;5071730;28;19916;-86
2022/07/28 01:07:12;;;;;;;;;;;13.10;99.90;;;;;;5069934;28;19913;-85
2022/07/28 01:09:46;;;;;;;;;;;13.10;99.90;;;;;;5066083;28;19917;-84
2022/07/28 01:12:23;;;;;;;;;;;13.10;99.90;;;;;;5067919;28;19908;-84
2022/07/28 01:15:00;;;;;;;;;;;13.00;99.90;;;;;;5066520;28;19921;-86
2022/07/28 01:17:32;;;;;;;;;;;12.90;99.90;;;;;;5071783;28;19916;-88
2022/07/28 01:20:04;;;;;;;;;;;12.90;99.90;;;;;;5061257;28;20423;-88
2022/07/28 01:22:32;;;;;;;;;;;12.90;99.90;;;;;;5070288;28;19970;-86
2022/07/28 01:25:15;;;;;;;;;;;12.80;99.90;;;;;;5070676;28;19924;-86
2022/07/28 01:27:59;;;;;;;;;;;12.70;99.90;;;;;;5072566;28;20294;-88
2022/07/28 01:30:47;;;;;;;;;;;12.70;99.90;;;;;;5069961;28;19920;-90
2022/07/28 01:33:17;;;;;;;;;;;12.80;99.90;;;;;;5070887;28;19978;-89
2022/07/28 01:35:45;;;;;;;;;;;12.80;99.90;;;;;;5069005;28;20450;-85
2022/07/28 01:38:12;;;;;;;;;;;12.80;99.90;;;;;;5071325;28;19916;-87
2022/07/28 01:40:39;;;;;;;;;;;12.70;99.90;;;;;;5070006;28;20007;-85
2022/07/28 01:43:06;;;;;;;;;;;12.60;99.90;;;;;;5068060;28;19916;-85
2022/07/28 01:45:33;;;;;;;;;;;12.60;99.90;;;;;;5064208;28;20310;-80
2022/07/28 01:47:59;;;;;;;;;;;12.60;99.90;;;;;;5066170;28;20387;-77
2022/07/28 01:50:25;;;;;;;;;;;12.50;99.90;;;;;;5069364;28;19936;-88
2022/07/28 01:52:51;;;;;;;;;;;12.50;99.90;;;;;;5071208;28;19920;-86
2022/07/28 01:55:19;;;;;;;;;;;12.50;99.90;;;;;;5068497;28;19913;-85
2022/07/28 01:57:45;;;;;;;;;;;12.50;99.90;;;;;;5068931;28;19974;-83
2022/07/28 02:00:12;;;;;;;;;;;12.50;99.90;;;;;;5058225;28;20401;-86
2022/07/28 02:02:39;;;;;;;;;;;12.50;99.90;;;;;;5069125;28;19916;-86
2022/07/28 02:05:06;;;;;;;;;;;12.40;99.90;;;;;;5060150;28;19917;-86
2022/07/28 02:07:32;;;;;;;;;;;12.40;99.90;;;;;;5068730;28;20251;-86
2022/07/28 02:09:57;;;;;;;;;;;12.40;99.90;;;;;;5068996;28;19919;-85
2022/07/28 02:12:24;;;;;;;;;;;12.30;99.90;;;;;;5068785;28;19908;-86
2022/07/28 02:14:50;;;;;;;;;;;12.30;99.90;;;;;;5071210;28;19920;-86
2022/07/28 02:17:25;;;;;;;;;;;12.20;99.90;;;;;;5069409;28;19916;-86
2022/07/28 02:19:51;;;;;;;;;;;12.20;99.90;;;;;;5067631;28;19913;-86
2022/07/28 02:22:17;;;;;;;;;;;12.30;99.90;;;;;;5069349;28;19939;-87
2022/07/28 02:24:43;;;;;;;;;;;12.20;99.90;;;;;;5069097;28;19968;-87
2022/07/28 02:27:12;;;;;;;;;;;12.20;99.90;;;;;;5070393;28;19985;-86
2022/07/28 02:29:42;;;;;;;;;;;12.20;99.90;;;;;;5073094;28;20371;-90
2022/07/28 02:32:15;;;;;;;;;;;12.20;99.90;;;;;;5077307;28;19917;-89
2022/07/28 02:34:41;;;;;;;;;;;12.20;99.90;;;;;;5060778;28;19920;-88
2022/07/28 02:37:08;;;;;;;;;;;12.20;99.90;;;;;;5075077;28;19912;-85
2022/07/28 02:39:39;;;;;;;;;;;12.20;99.90;;;;;;5065386;28;19917;-87
2022/07/28 02:42:08;;;;;;;;;;;12.20;99.90;;;;;;5057029;28;19916;-89
2022/07/28 02:44:40;;;;;;;;;;;12.20;99.90;;;;;;5071472;28;19912;-87
2022/07/28 02:47:07;;;;;;;;;;;12.20;99.90;;;;;;5072862;28;19915;-87
2022/07/28 02:49:34;;;;;;;;;;;12.20;99.90;;;;;;5075448;28;19919;-89
2022/07/28 02:52:00;;;;;;;;;;;12.20;99.90;;;;;;5071371;28;19912;-89
2022/07/28 02:54:27;;;;;;;;;;;12.20;99.90;;;;;;5076514;28;19920;-90
2022/07/28 02:56:53;;;;;;;;;;;12.20;99.90;;;;;;5074371;28;19920;-88
2022/07/28 02:59:19;;;;;;;;;;;12.10;99.90;;;;;;5072218;28;19919;-90
2022/07/28 03:01:45;;;;;;;;;;;12.00;99.90;;;;;;5071199;28;20434;-89
2022/07/28 03:04:12;;;;;;;;;;;12.00;99.90;;;;;;5075884;28;19966;-88
2022/07/28 03:06:38;;;;;;;;;;;12.00;99.90;;;;;;5074035;28;19916;-83
2022/07/28 03:09:04;;;;;;;;;;;12.10;99.90;;;;;;5066454;28;19916;-83
2022/07/28 03:11:29;;;;;;;;;;;12.10;99.90;;;;;;5064124;28;20373;-83
2022/07/28 03:13:55;;;;;;;;;;;12.10;99.90;;;;;;5066528;28;20510;-83
2022/07/28 03:16:20;;;;;;;;;;;12.10;99.90;;;;;;5064369;28;19913;-83
2022/07/28 03:18:46;;;;;;;;;;;11.90;99.90;;;;;;5066176;28;19913;-84
2022/07/28 03:21:11;;;;;;;;;;;11.90;99.90;;;;;;5065994;28;19912;-85
2022/07/28 03:23:40;;;;;;;;;;;11.90;99.90;;;;;;5073256;28;19919;-87
2022/07/28 03:26:12;;;;;;;;;;;11.90;99.90;;;;;;5078053;28;19999;-86
2022/07/28 03:28:37;;;;;;;;;;;11.90;99.90;;;;;;5082210;28;19958;-86
2022/07/28 03:31:06;;;;;;;;;;;11.90;99.90;;;;;;5070067;28;19999;-86
2022/07/28 03:33:32;;;;;;;;;;;11.90;99.90;;;;;;5074247;28;19969;-86
2022/07/28 03:36:00;;;;;;;;;;;11.80;99.90;;;;;;5071330;28;19912;-85
2022/07/28 03:38:31;;;;;;;;;;;11.80;99.90;;;;;;5076568;28;20088;-88
2022/07/28 03:40:57;;;;;;;;;;;11.80;99.90;;;;;;5070506;28;19916;-86
2022/07/28 03:43:24;;;;;;;;;;;11.80;99.90;;;;;;5072377;28;19912;-87
2022/07/28 03:45:50;;;;;;;;;;;11.90;99.90;;;;;;5069452;28;20382;-85
2022/07/28 03:48:15;;;;;;;;;;;11.80;99.90;;;;;;5070521;28;19920;-87
2022/07/28 03:50:41;;;;;;;;;;;11.90;99.90;;;;;;5070100;28;19982;-86
2022/07/28 03:53:23;;;;;;;;;;;11.90;99.90;;;;;;5072475;28;19927;-86
2022/07/28 03:55:52;;;;;;;;;;;11.90;99.90;;;;;;5069069;28;19952;-86
2022/07/28 03:58:22;;;;;;;;;;;12.00;99.90;;;;;;5072458;28;19932;-88
2022/07/28 04:00:48;;;;;;;;;;;12.10;99.90;;;;;;5071389;28;20249;-87
2022/07/28 04:03:14;;;;;;;;;;;12.10;99.90;;;;;;5070931;28;19923;-84
2022/07/28 04:05:39;;;;;;;;;;;12.10;99.90;;;;;;5068928;28;19916;-83
2022/07/28 04:08:05;;;;;;;;;;;12.00;99.90;;;;;;5070669;28;20347;-84
2022/07/28 04:10:30;;;;;;;;;;;12.00;99.90;;;;;;5066234;28;19912;-77
2022/07/28 04:12:57;;;;;;;;;;;12.00;99.90;;;;;;5070114;28;20007;-86
2022/07/28 04:15:23;;;;;;;;;;;12.10;99.90;;;;;;5071831;28;19912;-84
2022/07/28 04:17:49;;;;;;;;;;;12.10;99.90;;;;;;5012121;28;19920;-89
2022/07/28 04:20:16;;;;;;;;;;;12.20;99.90;;;;;;5071011;28;19927;-89
2022/07/28 04:22:42;;;;;;;;;;;12.20;99.90;;;;;;5072581;28;19908;-91
2022/07/28 04:25:07;;;;;;;;;;;12.30;99.90;;;;;;5066884;28;20058;-87
2022/07/28 04:27:36;;;;;;;;;;;12.30;99.90;;;;;;5069448;28;20006;-84
2022/07/28 04:30:05;;;;;;;;;;;12.40;99.90;;;;;;5067257;28;19963;-84
2022/07/28 04:32:30;;;;;;;;;;;12.50;99.90;;;;;;5073763;28;19908;-84
2022/07/28 04:34:56;;;;;;;;;;;12.50;99.90;;;;;;5067835;28;19920;-84
2022/07/28 04:37:21;;;;;;;;;;;12.50;99.90;;;;;;5060254;28;19962;-83
2022/07/28 04:39:48;;;;;;;;;;;12.60;99.90;;;;;;5067342;28;20679;-81
2022/07/28 04:42:15;;;;;;;;;;;12.70;99.90;;;;;;5069110;28;20025;-82
2022/07/28 04:44:41;;;;;;;;;;;12.70;99.90;;;;;;5068958;28;19916;-83
2022/07/28 04:47:07;;;;;;;;;;;12.70;99.90;;;;;;5060473;28;20017;-83
2022/07/28 04:49:33;;;;;;;;;;;12.70;99.90;;;;;;5067706;28;20370;-83
2022/07/28 04:51:58;;;;;;;;;;;12.80;99.90;;;;;;5060296;28;19971;-82
2022/07/28 04:54:25;;;;;;;;;;;12.80;99.90;;;;;;5065447;28;20473;-82
2022/07/28 04:56:51;;;;;;;;;;;12.90;99.90;;;;;;5066239;28;19924;-81
2022/07/28 04:59:17;;;;;;;;;;;12.90;99.90;;;;;;5068835;28;19913;-81
2022/07/28 05:01:43;;;;;;;;;;;12.90;99.90;;;;;;5062250;28;19916;-81
2022/07/28 05:04:08;;;;;;;;;;;12.90;99.90;;;;;;5066954;28;20375;-81
2022/07/28 05:06:34;;;;;;;;;;;13.00;99.90;;;;;;5066177;28;19923;-82
2022/07/28 05:08:59;;;;;;;;;;;13.00;99.90;;;;;;5068091;28;20390;-81
2022/07/28 05:11:25;;;;;;;;;;;13.10;99.90;;;;;;5065979;28;19936;-81
2022/07/28 05:13:50;;;;;;;;;;;13.20;99.90;;;;;;5067679;28;20325;-80
2022/07/28 05:16:16;;;;;;;;;;;13.20;99.90;;;;;;5064962;28;19916;-81
2022/07/28 05:18:41;;;;;;;;;;;13.30;99.90;;;;;;5067377;28;19955;-81
2022/07/28 05:21:07;;;;;;;;;;;13.40;99.90;;;;;;5065336;28;19999;-80
2022/07/28 05:23:32;;;;;;;;;;;13.50;99.90;;;;;;5068699;28;19942;-81
2022/07/28 05:25:58;;;;;;;;;;;13.50;99.90;;;;;;5064418;28;20349;-86
2022/07/28 05:28:23;;;;;;;;;;;13.70;99.90;;;;;;5067310;28;19970;-80
2022/07/28 05:30:49;;;;;;;;;;;13.80;99.90;;;;;;5066358;28;19921;-84
2022/07/28 05:33:15;;;;;;;;;;;13.80;99.90;;;;;;5068227;28;19916;-81
2022/07/28 05:35:40;;;;;;;;;;;13.90;99.90;;;;;;5059836;28;20007;-83
2022/07/28 05:38:05;;;;;;;;;;;14.10;99.90;;;;;;5060830;28;19913;-84
2022/07/28 05:40:31;;;;;;;;;;;14.10;99.90;;;;;;5065791;28;19960;-82
2022/07/28 05:42:56;;;;;;;;;;;14.20;99.90;;;;;;5068375;28;19921;-82
2022/07/28 05:45:22;;;;;;;;;;;14.30;99.90;;;;;;5065708;28;19913;-80
2022/07/28 05:47:51;;;;;;;;;;;14.40;99.90;;;;;;5067802;28;19916;-83
2022/07/28 05:50:17;;;;;;;;;;;14.50;99.90;;;;;;5064568;28;19920;-81
2022/07/28 05:52:42;;;;;;;;;;;14.60;99.90;;;;;;5067456;28;20379;-81
2022/07/28 05:55:08;;;;;;;;;;;14.80;99.90;;;;;;5065912;28;19966;-82
2022/07/28 05:57:34;;;;;;;;;;;15.00;99.90;;;;;;5066956;28;20287;-82
2022/07/28 05:59:59;;;;;;;;;;;15.10;99.90;;;;;;5065616;28;19923;-81
2022/07/28 06:02:25;;;;;;;;;;;15.10;99.90;;;;;;5067417;28;19970;-83
2022/07/28 06:04:50;;;;;;;;;;;15.00;99.90;;;;;;5067744;28;19920;-82
2022/07/28 06:07:15;;;;;;;;;;;15.20;99.90;;;;;;5065420;28;19919;-81
2022/07/28 06:09:43;;;;;;;;;;;15.30;99.90;;;;;;5066321;28;19916;-83
2022/07/28 06:12:09;;;;;;;;;;;15.50;99.90;;;;;;5061562;28;19916;-83
2022/07/28 06:14:34;;;;;;;;;;;15.50;99.90;;;;;;5065955;28;20628;-81
2022/07/28 06:17:02;;;;;;;;;;;15.50;99.90;;;;;;5064461;28;19923;-81
2022/07/28 06:19:30;;;;;;;;;;;15.80;99.90;;;;;;5016831;28;19916;-81
2022/07/28 06:21:55;;;;;;;;;;;16.00;99.90;;;;;;5063515;28;19916;-81
2022/07/28 06:24:21;;;;;;;;;;;16.00;99.90;;;;;;5067438;28;19913;-82
2022/07/28 06:26:46;;;;;;;;;;;15.90;99.90;;;;;;5051094;28;19917;-82
2022/07/28 06:29:12;;;;;;;;;;;15.70;99.90;;;;;;5067546;28;19916;-83
2022/07/28 06:31:37;;;;;;;;;;;15.80;99.90;;;;;;5066049;28;20370;-85
2022/07/28 06:34:03;;;;;;;;;;;15.90;99.90;;;;;;5067055;28;19928;-91
2022/07/28 06:36:28;;;;;;;;;;;16.10;99.90;;;;;;5070453;28;19920;-86
2022/07/28 06:38:54;;;;;;;;;;;16.30;99.90;;;;;;5060754;28;19967;-88
2022/07/28 06:41:19;;;;;;;;;;;16.40;99.90;;;;;;5064982;28;20000;-86
2022/07/28 06:43:44;;;;;;;;;;;16.30;99.90;;;;;;5067566;28;19924;-86
2022/07/28 06:46:10;;;;;;;;;;;16.60;99.90;;;;;;5065855;28;20375;-85
2022/07/28 06:48:37;;;;;;;;;;;16.70;99.90;;;;;;5068061;28;19946;-89
2022/07/28 06:51:02;;;;;;;;;;;17.00;99.90;;;;;;5064697;28;19909;-87
2022/07/28 06:53:28;;;;;;;;;;;16.80;99.90;;;;;;5070337;28;19965;-92
2022/07/28 06:55:53;;;;;;;;;;;16.70;99.90;;;;;;5070480;28;19923;-85
2022/07/28 06:58:19;;;;;;;;;;;16.70;99.90;;;;;;5071134;28;19929;-93
2022/07/28 07:00:45;;;;;;;;;;;17.20;99.90;;;;;;5064817;28;20278;-85
2022/07/28 07:03:10;;;;;;;;;;;17.00;99.90;;;;;;5054064;28;20430;-84
2022/07/28 07:05:36;;;;;;;;;;;17.00;99.90;;;;;;5064290;28;20007;-82
2022/07/28 07:08:01;;;;;;;;;;;17.10;99.90;;;;;;5066419;28;19967;-83
2022/07/28 07:10:27;;;;;;;;;;;17.10;99.90;;;;;;5064591;28;19970;-84
2022/07/28 07:12:52;;;;;;;;;;;17.30;99.60;;;;;;5066513;28;19913;-85
2022/07/28 07:15:17;;;;;;;;;;;17.50;99.50;;;;;;5063555;28;19912;-81
2022/07/28 07:17:43;;;;;;;;;;;17.70;99.30;;;;;;5065824;28;19913;-81
2022/07/28 07:20:09;;;;;;;;;;;17.50;99.40;;;;;;5066309;28;19920;-85
2022/07/28 07:22:40;;;;;;;;;;;17.40;99.40;;;;;;5061789;28;20012;-85
2022/07/28 07:25:06;;;;;;;;;;;17.40;99.70;;;;;;5051492;28;20117;-83
2022/07/28 07:27:31;;;;;;;;;;;17.40;99.60;;;;;;5065545;28;19927;-84
2022/07/28 07:29:57;;;;;;;;;;;17.40;99.80;;;;;;5066287;28;19913;-81
2022/07/28 07:32:22;;;;;;;;;;;17.80;98.90;;;;;;5058086;28;19920;-80
2022/07/28 07:34:48;;;;;;;;;;;18.10;98.30;;;;;;5059179;28;20016;-81
2022/07/28 07:37:13;;;;;;;;;;;18.10;98.30;;;;;;5063975;28;19912;-81
2022/07/28 07:39:39;;;;;;;;;;;17.80;98.50;;;;;;5065648;28;20009;-82
2022/07/28 07:42:05;;;;;;;;;;;17.80;98.50;;;;;;5064572;28;19957;-82
2022/07/28 07:44:30;;;;;;;;;;;17.70;98.40;;;;;;5065072;28;19919;-84
2022/07/28 07:46:56;;;;;;;;;;;17.10;98.90;;;;;;5063969;28;19916;-83
2022/07/28 07:49:24;;;;;;;;;;;17.50;98.90;;;;;;5065720;28;19978;-81
2022/07/28 07:51:49;;;;;;;;;;;17.90;98.60;;;;;;5064400;28;19916;-82
2022/07/28 07:54:15;;;;;;;;;;;18.10;99.10;;;;;;5065719;28;20290;-84
2022/07/28 07:56:40;;;;;;;;;;;18.20;97.70;;;;;;5064394;28;20424;-84
2022/07/28 07:59:06;;;;;;;;;;;18.40;97.10;;;;;;5066030;28;19909;-83
2022/07/28 08:01:31;;;;;;;;;;;17.90;97.60;;;;;;5063709;28;19917;-82
2022/07/28 08:03:59;;;;;;;;;;;18.30;97.80;;;;;;5064095;28;19966;-82
2022/07/28 08:06:26;;;;;;;;;;;18.70;96.80;;;;;;5063730;28;20350;-82
2022/07/28 08:08:52;;;;;;;;;;;18.60;96.30;;;;;;5066759;28;19919;-87
2022/07/28 08:11:17;;;;;;;;;;;18.80;96.40;;;;;;5062709;28;19920;-75
2022/07/28 08:13:43;;;;;;;;;;;18.90;95.90;;;;;;5062728;28;20002;-70
2022/07/28 08:16:08;;;;;;;;;;;19.30;95.40;;;;;;5060635;28;19959;-70
2022/07/28 08:18:36;;;;;;;;;;;18.80;96.30;;;;;;5065881;28;20274;-72
2022/07/28 08:21:01;;;;;;;;;;;19.10;95.00;;;;;;5067302;28;19966;-72
2022/07/28 08:23:27;;;;;;;;;;;19.30;94.50;;;;;;5069241;28;20341;-72
2022/07/28 08:25:52;;;;;;;;;;;19.40;94.60;;;;;;5067277;28;19917;-75
2022/07/28 08:28:18;;;;;;;;;;;18.90;95.00;;;;;;5068334;28;20623;-75
2022/07/28 08:30:43;;;;;;;;;;;18.90;94.80;;;;;;5063430;28;20003;-75
2022/07/28 08:33:09;;;;;;;;;;;18.30;95.60;;;;;;5067004;28;19921;-75
2022/07/28 08:35:34;;;;;;;;;;;18.50;96.80;;;;;;5066524;28;19913;-92
2022/07/28 08:38:00;;;;;;;;;;;18.80;95.60;;;;;;5073716;28;19935;-75
2022/07/28 08:40:25;;;;;;;;;;;19.00;93.90;;;;;;5067944;28;19917;-75
2022/07/28 08:42:53;;;;;;;;;;;19.20;93.20;;;;;;5063829;28;19919;-75
2022/07/28 08:45:19;;;;;;;;;;;19.40;92.20;;;;;;5064748;28;20394;-76
2022/07/28 08:47:46;;;;;;;;;;;19.80;91.90;;;;;;5060052;28;19916;-74
2022/07/28 08:50:12;;;;;;;;;;;20.10;91.60;;;;;;5064621;28;19917;-75
2022/07/28 08:52:38;;;;;;;;;;;20.10;91.10;;;;;;5061009;28;19923;-75
2022/07/28 08:55:05;;;;;;;;;;;20.00;91.20;;;;;;5066277;28;19917;-74
2022/07/28 08:57:33;;;;;;;;;;;19.40;91.80;;;;;;5064032;28;19920;-76
2022/07/28 08:59:58;;;;;;;;;;;18.70;92.80;;;;;;5066170;28;19973;-75
2022/07/28 09:02:25;;;;;;;;;;;19.30;92.40;;;;;;5063685;28;19916;-76
2022/07/28 09:04:54;;;;;;;;;;;19.70;91.40;;;;;;5066407;28;20414;-76
2022/07/28 09:07:20;;;;;;;;;;;19.70;91.30;;;;;;5064253;28;19919;-77
2022/07/28 09:09:46;;;;;;;;;;;20.20;90.80;;;;;;5066798;28;20048;-76
2022/07/28 09:12:12;;;;;;;;;;;20.70;90.60;;;;;;5065759;28;20390;-76
2022/07/28 09:14:37;;;;;;;;;;;20.40;88.40;;;;;;5065874;28;20005;-75
2022/07/28 09:17:03;;;;;;;;;;;19.90;89.70;;;;;;5062458;28;19996;-75
2022/07/28 09:19:28;;;;;;;;;;;20.10;88.20;;;;;;5066875;28;20352;-75
2022/07/28 09:21:57;;;;;;;;;;;20.40;88.30;;;;;;5065647;28;19912;-76
2022/07/28 09:24:32;;;;;;;;;;;20.10;88.20;;;;;;5067146;28;19932;-76
2022/07/28 09:26:59;;;;;;;;;;;20.10;87.30;;;;;;5065180;28;19952;-76
2022/07/28 09:29:24;;;;;;;;;;;20.30;87.00;;;;;;5067173;28;20264;-81
2022/07/28 09:31:50;;;;;;;;;;;20.30;89.10;;;;;;5066061;28;19912;-79
2022/07/28 09:34:16;;;;;;;;;;;20.50;86.50;;;;;;5065576;28;19916;-77
2022/07/28 09:36:42;;;;;;;;;;;20.40;86.40;;;;;;5064349;28;19923;-77
2022/07/28 09:39:08;;;;;;;;;;;20.50;86.10;;;;;;5066466;28;19917;-76
2022/07/28 09:41:44;;;;;;;;;;;20.60;86.10;;;;;;5064771;28;19919;-78
2022/07/28 09:44:16;;;;;;;;;;;20.50;84.90;;;;;;5067746;28;19959;-75
2022/07/28 09:46:42;;;;;;;;;;;20.40;85.50;;;;;;5065404;28;20050;-83
2022/07/28 09:49:07;;;;;;;;;;;20.40;88.20;;;;;;5066736;28;20003;-78
2022/07/28 09:51:34;;;;;;;;;;;20.20;86.60;;;;;;5065168;28;19913;-80
2022/07/28 09:54:10;;;;;;;;;;;20.00;86.40;;;;;;5066989;28;20342;-81
2022/07/28 09:56:36;;;;;;;;;;;20.00;87.10;;;;;;5064224;28;20166;-78
2022/07/28 09:59:05;;;;;;;;;;;19.60;86.80;;;;;;5066789;28;20007;-79
2022/07/28 10:01:30;;;;;;;;;;;19.80;87.80;;;;;;5064507;28;19955;-81
2022/07/28 10:03:56;;;;;;;;;;;19.80;88.20;;;;;;5067126;28;19944;-78
2022/07/28 10:06:23;;;;;;;;;;;19.80;89.80;;;;;;5063992;28;19924;-79
2022/07/28 10:08:50;;;;;;;;;;;20.00;87.80;;;;;;5066692;28;19916;-79
2022/07/28 10:11:17;;;;;;;;;;;20.20;87.10;;;;;;5064627;28;20003;-81
2022/07/28 10:13:52;;;;;;;;;;;20.00;86.50;;;;;;5065309;28;20291;-80
2022/07/28 10:16:18;;;;;;;;;;;20.00;87.50;;;;;;5064522;28;20329;-82
2022/07/28 10:19:00;;;;;;;;;;;20.40;87.20;;;;;;5048467;28;19908;-73
2022/07/28 10:21:26;;;;;;;;;;;20.40;86.50;;;;;;5063077;28;19963;-81
2022/07/28 10:23:53;;;;;;;;;;;20.50;87.80;;;;;;5066535;28;19928;-76
2022/07/28 10:26:19;;;;;;;;;;;20.80;85.20;;;;;;5065394;28;19937;-82
2022/07/28 10:28:47;;;;;;;;;;;20.50;84.50;;;;;;5066620;28;19913;-80
2022/07/28 10:31:13;;;;;;;;;;;20.60;84.20;;;;;;5063672;28;20595;-79
2022/07/28 10:33:45;;;;;;;;;;;20.90;84.50;;;;;;5065270;28;19931;-79
2022/07/28 10:36:11;;;;;;;;;;;21.10;84.70;;;;;;5061327;28;20359;-78
2022/07/28 10:38:38;;;;;;;;;;;21.20;85.40;;;;;;5066033;28;19912;-82
2022/07/28 10:41:06;;;;;;;;;;;21.30;83.70;;;;;;5063765;28;19916;-79
2022/07/28 10:43:31;;;;;;;;;;;21.40;83.10;;;;;;5066033;28;19912;-80
2022/07/28 10:45:58;;;;;;;;;;;21.40;84.80;;;;;;5063212;28;19923;-79
2022/07/28 10:48:23;;;;;;;;;;;21.70;82.20;;;;;;5065642;28;20395;-80
2022/07/28 10:50:49;;;;;;;;;;;21.50;80.30;;;;;;5066300;28;19959;-77
2022/07/28 10:53:22;;;;;;;;;;;21.90;80.20;;;;;;5061722;28;20018;-81
2022/07/28 10:55:50;;;;;;;;;;;21.80;78.70;;;;;;5065272;28;19913;-80
2022/07/28 10:58:15;;;;;;;;;;;21.10;80.30;;;;;;5063224;28;19920;-80
2022/07/28 11:00:59;;;;;;;;;;;21.30;79.20;;;;;;5065345;28;19923;-79
2022/07/28 11:03:41;;;;;;;;;;;21.10;79.20;;;;;;5064474;28;20019;-77
2022/07/28 11:06:22;;;;;;;;;;;21.70;78.80;;;;;;5063762;28;19920;-79
2022/07/28 11:08:48;;;;;;;;;;;21.60;78.00;;;;;;5065384;28;19927;-79
2022/07/28 11:11:13;;;;;;;;;;;21.70;76.60;;;;;;5063916;28;19912;-75
2022/07/28 11:13:39;;;;;;;;;;;22.50;80.90;;;;;;5065971;28;19920;-76
2022/07/28 11:16:14;;;;;;;;;;;22.80;75.40;;;;;;5063181;28;20166;-76
2022/07/28 11:18:58;;;;;;;;;;;22.50;76.10;;;;;;5064064;28;19971;-76
2022/07/28 11:21:23;;;;;;;;;;;22.90;74.20;;;;;;5062813;28;20140;-77
2022/07/28 11:23:53;;;;;;;;;;;22.80;75.70;;;;;;5065906;28;19913;-76
2022/07/28 11:26:19;;;;;;;;;;;23.10;77.00;;;;;;5064416;28;19938;-78
2022/07/28 11:29:02;;;;;;;;;;;22.80;73.90;;;;;;5066216;28;19919;-77
2022/07/28 11:31:43;;;;;;;;;;;23.30;69.60;;;;;;5063046;28;19920;-79
2022/07/28 11:34:08;;;;;;;;;;;23.50;69.50;;;;;;5066224;28;19916;-77
2022/07/28 11:36:53;;;;;;;;;;;22.90;71.60;;;;;;5063893;28;19961;-79
2022/07/28 11:39:22;;;;;;;;;;;22.90;70.60;;;;;;5066048;28;19919;-77
2022/07/28 11:41:47;;;;;;;;;;;23.70;69.60;;;;;;5063995;28;19924;-78
2022/07/28 11:44:29;;;;;;;;;;;24.00;67.60;;;;;;5065738;28;20282;-75
2022/07/28 11:47:13;;;;;;;;;;;24.30;67.40;;;;;;5062214;28;19913;-75
2022/07/28 11:49:38;;;;;;;;;;;24.70;65.40;;;;;;5068789;28;19913;-74
2022/07/28 11:52:22;;;;;;;;;;;23.80;66.20;;;;;;5066252;28;20290;-79
2022/07/28 11:54:48;;;;;;;;;;;24.20;66.40;;;;;;5055703;28;19920;-77
2022/07/28 11:57:15;;;;;;;;;;;24.30;66.50;;;;;;5064731;28;19928;-74
2022/07/28 11:59:45;;;;;;;;;;;23.60;66.90;;;;;;5068136;28;19951;-76
2022/07/28 12:02:14;;;;;;;;;;;23.50;67.50;;;;;;5065959;28;19920;-78
2022/07/28 12:04:39;;;;;;;;;;;23.00;67.60;;;;;;5071647;28;19920;-78
2022/07/28 12:07:06;;;;;;;;;;;23.10;68.10;;;;;;5066483;28;19973;-80
2022/07/28 12:09:32;;;;;;;;;;;23.20;66.90;;;;;;5068523;28;19923;-78
2022/07/28 12:11:58;;;;;;;;;;;22.80;66.90;;;;;;5066089;28;20424;-77
2022/07/28 12:14:27;;;;;;;;;;;23.30;66.90;;;;;;5067813;28;19912;-79
2022/07/28 12:16:53;;;;;;;;;;;24.40;65.00;;;;;;5066528;28;19912;-80
2022/07/28 12:19:19;;;;;;;;;;;25.30;63.90;;;;;;5071850;28;20297;-83
2022/07/28 12:21:49;;;;;;;;;;;25.40;64.20;;;;;;5067350;28;19912;-80
2022/07/28 12:24:14;;;;;;;;;;;25.00;63.60;;;;;;5069294;28;19909;-79
2022/07/28 12:26:40;;;;;;;;;;;25.30;62.20;;;;;;5072451;28;20333;-81
2022/07/28 12:29:06;;;;;;;;;;;25.10;62.00;;;;;;5073838;28;20359;-82
2022/07/28 12:31:32;;;;;;;;;;;25.40;61.40;;;;;;5072620;28;20432;-81
2022/07/28 12:33:58;;;;;;;;;;;25.60;60.50;;;;;;5077280;28;20014;-80
2022/07/28 12:36:24;;;;;;;;;;;25.20;61.70;;;;;;5071954;28;19950;-80
2022/07/28 12:38:50;;;;;;;;;;;25.20;63.30;;;;;;5068561;28;20040;-77
2022/07/28 12:41:16;;;;;;;;;;;25.60;62.90;;;;;;5068077;28;20393;-74
2022/07/28 12:43:48;;;;;;;;;;;26.20;60.40;;;;;;5066599;28;20024;-73
2022/07/28 12:46:24;;;;;;;;;;;25.40;58.30;;;;;;5068069;28;20092;-73
2022/07/28 12:48:50;;;;;;;;;;;24.50;61.10;;;;;;5068471;28;19912;-73
2022/07/28 12:51:34;;;;;;;;;;;25.40;58.30;;;;;;5068373;28;20011;-75
2022/07/28 12:54:03;;;;;;;;;;;25.20;58.90;;;;;;5061736;28;20501;-74
2022/07/28 12:56:29;;;;;;;;;;;26.20;57.70;;;;;;5064927;28;19924;-74
2022/07/28 12:59:04;;;;;;;;;;;25.80;58.70;;;;;;5067643;28;19912;-80
2022/07/28 13:01:48;;;;;;;;;;;25.60;57.40;;;;;;5065926;28;20328;-79
2022/07/28 13:04:14;;;;;;;;;;;26.80;56.20;;;;;;5055394;28;20421;-79
2022/07/28 13:06:40;;;;;;;;;;;25.70;56.80;;;;;;5065672;28;19971;-75
2022/07/28 13:09:06;;;;;;;;;;;25.60;59.60;;;;;;5060469;28;20352;-73
2022/07/28 13:11:32;;;;;;;;;;;26.50;57.00;;;;;;5064685;28;19916;-76
2022/07/28 13:13:57;;;;;;;;;;;25.60;58.70;;;;;;5065495;28;20003;-77
2022/07/28 13:16:24;;;;;;;;;;;26.90;55.50;;;;;;5066159;28;19916;-78
2022/07/28 13:18:50;;;;;;;;;;;27.60;53.10;;;;;;5064578;28;20411;-78
2022/07/28 13:21:35;;;;;;;;;;;27.10;53.70;;;;;;5067045;28;20300;-77
2022/07/28 13:24:01;;;;;;;;;;;26.00;56.60;;;;;;5066940;28;19916;-76
2022/07/28 13:26:27;;;;;;;;;;;27.50;53.70;;;;;;5066355;28;19981;-76
2022/07/28 13:29:00;;;;;;;;;;;26.50;53.90;;;;;;5064829;28;20283;-76
2022/07/28 13:31:25;;;;;;;;;;;26.70;52.50;;;;;;5066394;28;19966;-77
2022/07/28 13:33:50;;;;;;;;;;;26.60;53.10;;;;;;5055644;28;19921;-75
2022/07/28 13:36:16;;;;;;;;;;;25.80;54.10;;;;;;5066211;28;19913;-74
2022/07/28 13:38:41;;;;;;;;;;;25.00;55.20;;;;;;5065067;28;19920;-74
2022/07/28 13:41:07;;;;;;;;;;;25.80;54.00;;;;;;5066790;28;19920;-74
2022/07/28 13:43:32;;;;;;;;;;;25.20;55.80;;;;;;5065012;28;19944;-77
2022/07/28 13:45:58;;;;;;;;;;;25.10;55.20;;;;;;5067045;28;20292;-77
2022/07/28 13:48:23;;;;;;;;;;;25.70;54.40;;;;;;5065240;28;19916;-77
2022/07/28 13:50:49;;;;;;;;;;;26.10;54.70;;;;;;5067347;28;19916;-76
2022/07/28 13:53:14;;;;;;;;;;;26.10;53.40;;;;;;5061231;28;20067;-76
2022/07/28 13:55:40;;;;;;;;;;;26.30;52.70;;;;;;5067361;28;19920;-76
2022/07/28 13:58:05;;;;;;;;;;;26.30;55.10;;;;;;5065865;28;19969;-77
2022/07/28 14:00:30;;;;;;;;;;;26.90;52.80;;;;;;5067771;28;20003;-77
2022/07/28 14:02:56;;;;;;;;;;;28.80;49.40;;;;;;5063525;28;19913;-74
2022/07/28 14:05:21;;;;;;;;;;;29.50;47.90;;;;;;5065840;28;19978;-74
2022/07/28 14:07:49;;;;;;;;;;;29.20;48.30;;;;;;5054700;28;22013;-73
2022/07/28 14:10:18;;;;;;;;;;;29.20;48.30;;;;;;5065709;28;19922;-73
2022/07/28 14:12:43;;;;;;;;;;;29.60;46.90;;;;;;5063841;28;19912;-75
2022/07/28 14:15:09;;;;;;;;;;;27.50;49.50;;;;;;5066246;28;19981;-75
2022/07/28 14:17:34;;;;;;;;;;;26.80;50.70;;;;;;5063542;28;19943;-75